createdAt,value
2022-08-05T00:00:23.399Z,26.80
2022-08-05T00:02:53.998Z,26.70
2022-08-05T00:06:01.798Z,26.80
2022-08-05T00:08:32.816Z,26.80
2022-08-05T00:11:00.426Z,26.80
2022-08-05T00:13:38.981Z,26.80
2022-08-05T00:16:12.416Z,26.80
2022-08-05T00:18:48.563Z,26.90
2022-08-05T00:21:17.160Z,26.90
2022-08-05T00:24:04.998Z,27.00
2022-08-05T00:26:34.047Z,27.00
2022-08-05T00:29:02.641Z,27.00
2022-08-05T00:31:54.113Z,27.10
2022-08-05T00:34:53.877Z,27.10
2022-08-05T00:37:13.280Z,27.10
2022-08-05T00:39:57.406Z,27.20
2022-08-05T00:42:37.141Z,27.20
2022-08-05T00:45:08.430Z,27.30
2022-08-05T00:47:56.601Z,27.30
2022-08-05T00:50:25.901Z,27.40
2022-08-05T00:52:57.694Z,27.40
2022-08-05T00:55:42.351Z,27.50
2022-08-05T00:58:12.033Z,27.50
2022-08-05T01:00:40.299Z,27.60
2022-08-05T01:03:22.182Z,27.60
2022-08-05T01:05:54.436Z,27.60
2022-08-05T01:08:50.595Z,27.70
2022-08-05T01:11:33.601Z,27.70
2022-08-05T01:14:15.517Z,27.70
2022-08-05T01:16:52.545Z,27.70
2022-08-05T01:20:01.338Z,27.70
2022-08-05T01:22:57.309Z,27.80
2022-08-05T01:28:18.200Z,27.80
2022-08-05T01:31:06.410Z,27.80
2022-08-05T01:33:37.953Z,27.80
2022-08-05T01:36:12.964Z,27.90
2022-08-05T01:38:45.144Z,28.00
2022-08-05T01:41:15.176Z,28.00
2022-08-05T01:43:44.266Z,28.10
2022-08-05T01:46:42.060Z,28.20
2022-08-05T01:49:23.426Z,28.20
2022-08-05T01:51:56.732Z,28.20
2022-08-05T01:54:30.507Z,28.30
2022-08-05T01:58:11.070Z,28.30
2022-08-05T01:59:51.602Z,28.40
2022-08-05T02:02:28.498Z,28.40
2022-08-05T02:04:59.217Z,28.40
2022-08-05T02:07:30.326Z,28.50
2022-08-05T02:09:58.640Z,28.40
2022-08-05T02:12:42.314Z,28.50
2022-08-05T02:15:23.266Z,28.60
2022-08-05T02:18:31.819Z,28.60
2022-08-05T02:20:51.263Z,28.70
2022-08-05T02:23:30.273Z,28.80
2022-08-05T02:26:03.329Z,28.80
2022-08-05T02:28:36.435Z,28.90
2022-08-05T02:31:17.114Z,29.00
2022-08-05T02:33:57.165Z,29.00
2022-08-05T02:36:27.446Z,29.10
2022-08-05T02:38:57.823Z,29.10
2022-08-05T02:41:42.921Z,29.20
2022-08-05T02:44:20.292Z,29.20
2022-08-05T02:46:58.765Z,29.30
2022-08-05T02:49:40.626Z,29.30
2022-08-05T02:55:01.735Z,29.40
2022-08-05T02:58:09.288Z,29.40
2022-08-05T03:00:21.212Z,29.40
2022-08-05T03:02:49.435Z,29.40
2022-08-05T03:05:21.843Z,29.50
2022-08-05T03:08:08.911Z,29.50
2022-08-05T03:10:38.659Z,29.50
2022-08-05T03:13:16.843Z,29.50
2022-08-05T03:15:45.737Z,29.50
2022-08-05T03:18:17.439Z,29.50
2022-08-05T03:20:48.933Z,29.50
2022-08-05T03:23:18.356Z,29.50
2022-08-05T03:26:04.339Z,29.50
2022-08-05T03:28:44.988Z,29.50
2022-08-05T03:31:18.309Z,29.50
2022-08-05T03:34:07.300Z,29.50
2022-08-05T03:36:43.455Z,29.50
2022-08-05T03:39:12.969Z,29.50
2022-08-05T03:41:56.395Z,29.50
2022-08-05T03:44:28.977Z,29.50
2022-08-05T03:47:02.857Z,29.60
2022-08-05T03:49:52.161Z,29.60
2022-08-05T03:52:38.008Z,29.60
2022-08-05T03:56:05.358Z,29.60
2022-08-05T03:58:11.362Z,29.60
2022-08-05T04:00:44.307Z,29.70
2022-08-05T04:03:28.527Z,29.70
2022-08-05T04:06:01.579Z,29.60
2022-08-05T04:08:36.177Z,29.60
2022-08-05T04:11:06.403Z,29.70
2022-08-05T04:13:50.647Z,29.70
2022-08-05T04:16:25.085Z,29.70
2022-08-05T04:18:57.982Z,29.70
2022-08-05T04:22:09.258Z,29.70
2022-08-05T04:24:19.366Z,29.80
2022-08-05T04:26:51.798Z,29.90
2022-08-05T04:29:19.955Z,29.90
2022-08-05T04:31:49.660Z,29.90
2022-08-05T04:34:32.585Z,30.00
2022-08-05T04:37:03.097Z,30.00
2022-08-05T04:39:32.160Z,30.10
2022-08-05T04:42:03.835Z,30.10
2022-08-05T04:44:31.620Z,30.00
2022-08-05T04:47:09.311Z,30.10
2022-08-05T04:50:01.515Z,30.10
2022-08-05T04:52:28.893Z,30.10
2022-08-05T04:55:13.839Z,30.20
2022-08-05T04:57:47.745Z,30.20
2022-08-05T05:00:23.378Z,30.20
2022-08-05T05:02:54.842Z,30.20
2022-08-05T05:05:28.933Z,30.20
2022-08-05T05:08:01.523Z,30.20
2022-08-05T05:10:33.116Z,30.30
2022-08-05T05:13:03.987Z,30.40
2022-08-05T05:15:54.362Z,30.40
2022-08-05T05:18:31.234Z,30.40
2022-08-05T05:21:03.090Z,30.40
2022-08-05T05:23:39.407Z,30.50
2022-08-05T05:26:19.744Z,30.50
2022-08-05T05:28:56.994Z,30.50
2022-08-05T05:31:25.148Z,30.50
2022-08-05T05:34:02.002Z,30.60
2022-08-05T05:36:31.167Z,30.70
2022-08-05T05:39:10.894Z,30.70
2022-08-05T05:41:40.786Z,30.80
2022-08-05T05:44:36.983Z,30.80
2022-08-05T05:46:58.071Z,30.90
2022-08-05T05:49:29.341Z,30.90
2022-08-05T05:51:57.627Z,30.90
2022-08-05T05:54:49.674Z,30.90
2022-08-05T05:57:19.020Z,30.90
2022-08-05T05:59:49.144Z,30.90
2022-08-05T06:02:32.323Z,30.90
2022-08-05T06:05:10.458Z,30.90
2022-08-05T06:08:01.378Z,30.80
2022-08-05T06:10:36.649Z,30.80
2022-08-05T06:13:08.552Z,30.80
2022-08-05T06:16:28.884Z,30.70
2022-08-05T06:18:42.089Z,30.70
2022-08-05T06:21:18.591Z,30.70
2022-08-05T06:23:47.035Z,30.70
2022-08-05T06:26:24.049Z,30.70
2022-08-05T06:28:53.095Z,30.60
2022-08-05T06:34:07.753Z,30.60
2022-08-05T06:36:37.380Z,30.50
2022-08-05T06:39:27.102Z,30.50
2022-08-05T06:41:59.820Z,30.50
2022-08-05T06:44:29.695Z,30.40
2022-08-05T06:46:57.710Z,30.30
2022-08-05T06:50:00.776Z,30.30
2022-08-05T06:52:36.876Z,30.20
2022-08-05T06:55:06.843Z,30.20
2022-08-05T06:58:02.630Z,30.10
2022-08-05T07:00:24.975Z,30.10
2022-08-05T07:02:54.900Z,30.00
2022-08-05T07:05:27.602Z,30.00
2022-08-05T07:08:05.852Z,29.90
2022-08-05T07:10:33.891Z,29.90
2022-08-05T07:13:13.908Z,29.90
2022-08-05T07:16:01.004Z,29.90
2022-08-05T07:18:32.354Z,29.90
2022-08-05T07:21:04.632Z,29.90
2022-08-05T07:23:33.601Z,29.90
2022-08-05T07:26:04.639Z,29.90
2022-08-05T07:28:32.457Z,29.90
2022-08-05T07:31:03.234Z,30.00
2022-08-05T07:33:35.193Z,29.90
2022-08-05T07:36:20.849Z,30.00
2022-08-05T07:38:54.993Z,30.00
2022-08-05T07:42:07.943Z,29.90
2022-08-05T07:44:18.676Z,30.00
2022-08-05T07:46:50.730Z,30.10
2022-08-05T07:49:20.947Z,30.10
2022-08-05T07:51:54.236Z,30.10
2022-08-05T07:54:30.308Z,30.10
2022-08-05T07:57:22.733Z,30.20
2022-08-05T07:59:51.190Z,30.20
2022-08-05T08:02:19.620Z,30.30
2022-08-05T08:04:55.027Z,30.30
2022-08-05T08:07:23.374Z,30.30
2022-08-05T08:09:53.202Z,30.40
2022-08-05T08:12:35.674Z,30.40
2022-08-05T08:15:15.735Z,30.40
2022-08-05T08:17:52.740Z,30.40
2022-08-05T08:21:00.050Z,30.40
2022-08-05T08:24:02.938Z,30.40
2022-08-05T08:26:04.613Z,30.40
2022-08-05T08:28:37.035Z,30.30
2022-08-05T08:31:15.048Z,30.40
2022-08-05T08:33:53.263Z,30.40
2022-08-05T08:36:37.645Z,30.50
2022-08-05T08:39:21.674Z,30.60
2022-08-05T08:42:10.809Z,30.60
2022-08-05T08:45:22.114Z,30.60
2022-08-05T08:48:07.686Z,30.60
2022-08-05T08:51:22.299Z,31.10
2022-08-05T08:53:44.320Z,30.60
2022-08-05T08:56:13.594Z,30.70
2022-08-05T08:58:44.357Z,30.60
2022-08-05T09:01:17.746Z,30.70
2022-08-05T09:03:54.623Z,30.60
2022-08-05T09:06:29.973Z,30.60
2022-08-05T09:09:02.051Z,30.60
2022-08-05T09:11:50.788Z,30.60
2022-08-05T09:14:56.727Z,30.60
2022-08-05T09:17:09.695Z,30.60
2022-08-05T09:20:01.541Z,30.60
2022-08-05T09:22:51.971Z,30.60
2022-08-05T09:25:23.842Z,30.60
2022-08-05T09:28:04.817Z,30.60
2022-08-05T09:30:35.291Z,30.60
2022-08-05T09:33:10.024Z,30.60
2022-08-05T09:35:56.346Z,30.60
2022-08-05T09:38:27.615Z,30.60
2022-08-05T09:41:08.148Z,30.60
2022-08-05T09:43:40.526Z,30.60
2022-08-05T09:46:27.708Z,30.60
2022-08-05T09:49:06.795Z,30.60
2022-08-05T09:51:36.507Z,30.60
2022-08-05T09:54:08.032Z,30.60
2022-08-05T09:56:40.791Z,30.50
2022-08-05T09:59:19.567Z,30.50
2022-08-05T10:01:48.406Z,30.50
2022-08-05T10:04:35.162Z,30.50
2022-08-05T10:07:20.134Z,30.40
2022-08-05T10:10:04.316Z,30.30
2022-08-05T10:12:49.930Z,30.30
2022-08-05T10:15:34.335Z,30.30
2022-08-05T10:18:14.548Z,30.20
2022-08-05T10:20:49.628Z,30.20
2022-08-05T10:23:22.112Z,30.20
2022-08-05T10:26:13.834Z,30.10
2022-08-05T10:28:46.598Z,30.10
2022-08-05T10:32:48.526Z,30.10
2022-08-05T10:34:07.120Z,30.00
2022-08-05T10:36:40.233Z,30.00
2022-08-05T10:39:15.255Z,30.00
2022-08-05T10:42:05.730Z,30.00
2022-08-05T10:44:33.938Z,29.90
2022-08-05T10:47:25.762Z,29.90
2022-08-05T10:50:33.217Z,29.90
2022-08-05T10:53:01.837Z,29.90
2022-08-05T10:55:32.801Z,29.90
2022-08-05T10:58:21.157Z,29.80
2022-08-05T11:00:55.190Z,29.80
2022-08-05T11:03:31.742Z,29.80
2022-08-05T11:06:15.070Z,29.80
2022-08-05T11:08:56.577Z,29.80
2022-08-05T11:11:44.302Z,29.80
2022-08-05T11:14:13.297Z,29.70
2022-08-05T11:16:56.212Z,29.70
2022-08-05T11:20:16.706Z,29.70
2022-08-05T11:22:31.944Z,29.60
2022-08-05T11:25:35.001Z,29.60
2022-08-05T11:28:22.430Z,29.60
2022-08-05T11:31:10.675Z,29.50
2022-08-05T11:33:46.260Z,29.50
2022-08-05T11:36:34.479Z,29.50
2022-08-05T11:39:10.884Z,29.40
2022-08-05T11:42:01.947Z,29.40
2022-08-05T11:44:52.819Z,29.40
2022-08-05T11:47:49.639Z,29.40
2022-08-05T11:50:14.093Z,29.30
2022-08-05T11:52:44.065Z,29.30
2022-08-05T11:55:16.190Z,29.30
2022-08-05T11:58:10.759Z,29.20
2022-08-05T12:00:38.020Z,29.30
2022-08-05T12:03:23.982Z,29.20
2022-08-05T12:06:02.865Z,29.20
2022-08-05T12:08:31.698Z,29.10
2022-08-05T12:11:05.530Z,29.10
2022-08-05T12:13:48.511Z,29.10
2022-08-05T12:16:25.386Z,29.10
2022-08-05T12:18:55.008Z,29.00
2022-08-05T12:21:29.868Z,29.00
2022-08-05T12:23:59.897Z,29.00
2022-08-05T12:26:34.220Z,29.00
2022-08-05T12:29:03.572Z,28.90
2022-08-05T12:31:46.040Z,28.90
2022-08-05T12:34:20.565Z,28.90
2022-08-05T12:36:52.298Z,28.80
2022-08-05T12:39:20.302Z,28.90
2022-08-05T12:41:48.585Z,28.80
2022-08-05T12:44:28.681Z,28.80
2022-08-05T12:47:02.540Z,28.80
2022-08-05T12:50:04.747Z,28.80
2022-08-05T12:52:35.423Z,28.80
2022-08-05T12:55:26.807Z,28.80
2022-08-05T12:58:38.657Z,28.80
2022-08-05T13:02:00.489Z,28.70
2022-08-05T13:03:41.371Z,28.70
2022-08-05T13:06:18.023Z,28.70
2022-08-05T13:08:51.610Z,28.70
2022-08-05T13:11:25.486Z,28.60
2022-08-05T13:14:19.584Z,28.70
2022-08-05T13:16:58.203Z,28.60
2022-08-05T13:19:29.997Z,28.60
2022-08-05T13:22:27.769Z,28.60
2022-08-05T13:25:00.385Z,28.60
2022-08-05T13:27:37.561Z,28.60
2022-08-05T13:30:35.889Z,28.60
2022-08-05T13:33:01.701Z,28.60
2022-08-05T13:35:43.225Z,28.60
2022-08-05T13:38:28.410Z,28.60
2022-08-05T13:41:02.728Z,28.60
2022-08-05T13:43:44.562Z,28.50
2022-08-05T13:46:30.788Z,28.50
2022-08-05T13:49:10.486Z,28.50
2022-08-05T13:51:41.535Z,28.50
2022-08-05T13:54:12.363Z,28.50
2022-08-05T13:56:51.184Z,28.50
2022-08-05T13:59:24.142Z,28.50
2022-08-05T14:01:59.235Z,28.40
2022-08-05T14:05:00.701Z,28.40
2022-08-05T14:08:00.083Z,28.40
2022-08-05T14:10:29.246Z,28.40
2022-08-05T14:12:59.643Z,28.40
2022-08-05T14:16:05.956Z,28.40
2022-08-05T14:18:18.436Z,28.40
2022-08-05T14:20:54.738Z,28.40
2022-08-05T14:23:25.583Z,28.30
2022-08-05T14:25:58.198Z,28.30
2022-08-05T14:28:30.411Z,28.40
2022-08-05T14:30:59.076Z,28.40
2022-08-05T14:33:26.939Z,28.30
2022-08-05T14:35:54.927Z,28.30
2022-08-05T14:38:31.622Z,28.30
2022-08-05T14:41:06.432Z,28.30
2022-08-05T14:43:57.332Z,28.30
2022-08-05T14:46:28.077Z,28.30
2022-08-05T14:49:06.619Z,28.30
2022-08-05T14:51:42.629Z,28.20
2022-08-05T14:54:30.227Z,28.30
2022-08-05T14:57:00.581Z,28.20
2022-08-05T14:59:35.336Z,28.20
2022-08-05T15:02:15.176Z,28.20
2022-08-05T15:04:44.954Z,28.20
2022-08-05T15:08:12.299Z,28.20
2022-08-05T15:10:03.485Z,28.20
2022-08-05T15:12:45.784Z,28.20
2022-08-05T15:15:54.561Z,28.20
2022-08-05T15:18:10.346Z,28.20
2022-08-05T15:20:42.370Z,28.20
2022-08-05T15:23:11.786Z,28.20
2022-08-05T15:25:51.945Z,28.20
2022-08-05T15:28:21.726Z,28.10
2022-08-05T15:30:55.843Z,28.10
2022-08-05T15:34:04.314Z,28.10
2022-08-05T15:36:17.316Z,28.10
2022-08-05T15:40:41.593Z,28.10
2022-08-05T15:41:56.387Z,28.00
2022-08-05T15:44:30.253Z,28.00
2022-08-05T15:47:00.503Z,28.00
2022-08-05T15:49:43.266Z,28.00
2022-08-05T15:52:29.171Z,28.00
2022-08-05T15:55:06.247Z,28.00
2022-08-05T15:57:35.777Z,28.00
2022-08-05T16:00:04.916Z,28.00
2022-08-05T16:02:32.972Z,28.00
2022-08-05T16:05:01.741Z,28.00
2022-08-05T16:07:29.971Z,27.90
2022-08-05T16:09:57.899Z,28.00
2022-08-05T16:12:25.945Z,28.00
2022-08-05T16:14:54.180Z,27.90
2022-08-05T16:17:23.550Z,27.90
2022-08-05T16:20:04.737Z,27.90
2022-08-05T16:22:39.182Z,27.90
2022-08-05T16:25:09.698Z,27.90
2022-08-05T16:28:00.512Z,27.90
2022-08-05T16:30:29.040Z,27.90
2022-08-05T16:32:58.936Z,27.90
2022-08-05T16:35:32.167Z,27.80
2022-08-05T16:38:16.174Z,27.80
2022-08-05T16:40:55.262Z,27.80
2022-08-05T16:43:27.831Z,27.80
2022-08-05T16:46:03.850Z,27.80
2022-08-05T16:48:38.467Z,27.80
2022-08-05T16:51:09.093Z,27.80
2022-08-05T16:54:02.488Z,27.80
2022-08-05T16:56:30.379Z,27.80
2022-08-05T16:59:00.838Z,27.80
2022-08-05T17:01:52.738Z,27.80
2022-08-05T17:04:26.559Z,27.80
2022-08-05T17:06:55.714Z,27.70
2022-08-05T17:09:28.513Z,27.70
2022-08-05T17:11:59.941Z,27.70
2022-08-05T17:14:34.140Z,27.70
2022-08-05T17:17:05.468Z,27.70
2022-08-05T17:19:33.892Z,27.70
2022-08-05T17:22:01.790Z,27.70
2022-08-05T17:24:38.496Z,27.70
2022-08-05T17:27:11.348Z,27.70
2022-08-05T17:29:40.900Z,27.70
2022-08-05T17:32:11.376Z,27.70
2022-08-05T17:34:44.843Z,27.70
2022-08-05T17:37:40.689Z,27.60
2022-08-05T17:40:05.902Z,27.60
2022-08-05T17:42:41.825Z,27.60
2022-08-05T17:45:22.816Z,27.60
2022-08-05T17:47:54.905Z,27.60
2022-08-05T17:50:28.103Z,27.60
2022-08-05T17:52:59.403Z,27.60
2022-08-05T17:55:38.311Z,27.50
2022-08-05T17:58:11.247Z,27.50
2022-08-05T18:00:45.450Z,27.50
2022-08-05T18:03:59.113Z,27.50
2022-08-05T18:06:12.188Z,27.50
2022-08-05T18:08:45.513Z,27.50
2022-08-05T18:11:23.976Z,27.50
2022-08-05T18:13:54.188Z,27.50
2022-08-05T18:16:24.018Z,27.50
2022-08-05T18:18:51.826Z,27.40
2022-08-05T18:21:26.092Z,27.40
2022-08-05T18:23:55.393Z,27.40
2022-08-05T18:26:29.105Z,27.40
2022-08-05T18:28:59.956Z,27.40
2022-08-05T18:31:33.126Z,27.40
2022-08-05T18:34:05.949Z,27.40
2022-08-05T18:36:35.651Z,27.40
2022-08-05T18:39:06.539Z,27.40
2022-08-05T18:41:58.150Z,27.30
2022-08-05T18:44:34.873Z,27.40
2022-08-05T18:47:05.185Z,27.30
2022-08-05T18:49:58.422Z,27.40
2022-08-05T18:52:36.746Z,27.30
2022-08-05T18:55:05.987Z,27.30
2022-08-05T18:57:43.057Z,27.30
2022-08-05T19:00:20.231Z,27.30
2022-08-05T19:02:48.794Z,27.30
2022-08-05T19:06:12.910Z,27.30
2022-08-05T19:08:13.617Z,27.30
2022-08-05T19:10:44.110Z,27.30
2022-08-05T19:13:15.995Z,27.30
2022-08-05T19:16:00.165Z,27.20
2022-08-05T19:18:32.201Z,27.20
2022-08-05T19:21:00.901Z,27.20
2022-08-05T19:24:07.124Z,27.20
2022-08-05T19:26:19.476Z,27.20
2022-08-05T19:28:48.079Z,27.20
2022-08-05T19:31:19.346Z,27.20
2022-08-05T19:33:56.696Z,27.20
2022-08-05T19:36:25.600Z,27.20
2022-08-05T19:38:58.741Z,27.20
2022-08-05T19:41:58.077Z,27.20
2022-08-05T19:44:19.029Z,27.20
2022-08-05T19:46:50.344Z,27.20
2022-08-05T19:49:18.595Z,27.20
2022-08-05T19:52:13.147Z,27.20
2022-08-05T19:54:35.601Z,27.20
2022-08-05T19:57:09.713Z,27.20
2022-08-05T20:00:00.846Z,27.20
2022-08-05T20:02:31.511Z,27.20
2022-08-05T20:05:00.041Z,27.20
2022-08-05T20:07:46.721Z,27.20
2022-08-05T20:10:16.518Z,27.20
2022-08-05T20:12:46.239Z,27.10
2022-08-05T20:15:48.620Z,27.10
2022-08-05T20:18:10.222Z,27.10
2022-08-05T20:20:56.043Z,27.10
2022-08-05T20:23:39.378Z,27.10
2022-08-05T20:26:17.519Z,27.10
2022-08-05T20:28:46.415Z,27.10
2022-08-05T20:31:16.557Z,27.10
2022-08-05T20:33:45.432Z,27.10
2022-08-05T20:36:16.411Z,27.10
2022-08-05T20:38:53.510Z,27.10
2022-08-05T20:41:27.324Z,27.10
2022-08-05T20:44:17.239Z,27.10
2022-08-05T20:46:49.039Z,27.10
2022-08-05T20:49:18.401Z,27.10
2022-08-05T20:51:53.816Z,27.10
2022-08-05T20:54:22.733Z,27.10
2022-08-05T20:56:53.312Z,27.10
2022-08-05T20:59:26.580Z,27.10
2022-08-05T21:02:09.728Z,27.10
2022-08-05T21:04:38.418Z,27.10
2022-08-05T21:07:07.036Z,27.10
2022-08-05T21:09:37.217Z,27.10
2022-08-05T21:12:20.166Z,27.10
2022-08-05T21:14:48.839Z,27.10
2022-08-05T21:17:17.500Z,27.10
2022-08-05T21:19:47.789Z,27.10
2022-08-05T21:22:23.813Z,27.10
2022-08-05T21:24:53.547Z,27.00
2022-08-05T21:27:25.225Z,27.10
2022-08-05T21:29:56.742Z,27.00
2022-08-05T21:32:28.725Z,27.00
2022-08-05T21:35:08.879Z,27.00
2022-08-05T21:37:52.793Z,27.00
2022-08-05T21:40:24.061Z,27.10
2022-08-05T21:42:53.658Z,27.10
2022-08-05T21:45:24.891Z,27.00
2022-08-05T21:48:08.205Z,27.10
2022-08-05T21:50:37.403Z,27.00
2022-08-05T21:53:16.609Z,27.10
2022-08-05T21:56:04.955Z,27.00
2022-08-05T21:58:33.735Z,27.00
2022-08-05T22:01:01.581Z,27.00
2022-08-05T22:03:51.955Z,27.00
2022-08-05T22:06:22.342Z,27.00
2022-08-05T22:08:52.427Z,27.00
2022-08-05T22:11:35.595Z,27.00
2022-08-05T22:14:32.931Z,26.90
2022-08-05T22:16:56.069Z,26.90
2022-08-05T22:20:03.523Z,26.90
2022-08-05T22:22:14.601Z,27.00
2022-08-05T22:24:55.734Z,26.90
2022-08-05T22:28:08.610Z,27.00
2022-08-05T22:30:35.186Z,26.90
2022-08-05T22:33:04.485Z,27.00
2022-08-05T22:35:48.759Z,26.90
2022-08-05T22:38:19.665Z,26.90
2022-08-05T22:40:49.442Z,26.90
2022-08-05T22:43:36.782Z,26.90
2022-08-05T22:46:12.010Z,26.90
2022-08-05T22:48:43.169Z,26.90
2022-08-05T22:51:15.868Z,26.90
2022-08-05T22:53:55.100Z,26.90
2022-08-05T22:56:29.805Z,26.90
2022-08-05T22:58:59.899Z,26.90
2022-08-05T23:02:04.217Z,26.90
2022-08-05T23:04:18.314Z,26.90
2022-08-05T23:06:46.054Z,26.90
2022-08-05T23:09:27.810Z,26.90
2022-08-05T23:12:04.386Z,26.90
2022-08-05T23:14:32.707Z,26.90
2022-08-05T23:17:14.027Z,26.90
2022-08-05T23:19:56.216Z,26.90
2022-08-05T23:22:27.287Z,26.90
2022-08-05T23:24:55.558Z,26.90
2022-08-05T23:27:24.166Z,26.90
2022-08-05T23:29:56.764Z,26.90
2022-08-05T23:32:24.740Z,26.90
2022-08-05T23:34:55.822Z,26.90
2022-08-05T23:37:23.904Z,26.90
2022-08-05T23:39:55.030Z,26.90
2022-08-05T23:42:23.370Z,26.90
2022-08-05T23:44:54.420Z,26.90
2022-08-05T23:47:22.399Z,26.90
2022-08-05T23:49:55.665Z,26.90
2022-08-05T23:52:28.461Z,27.00
2022-08-05T23:54:58.289Z,27.00
2022-08-05T23:57:29.511Z,27.00
